sensor_id;sensor_type;location;lat;lon;timestamp;temperature;humidity
77207;DHT22;66190;50.708;7.906;2023-01-15T00:00:18;6.90;94.50
77207;DHT22;66190;50.708;7.906;2023-01-15T00:02:44;6.90;94.70
77207;DHT22;66190;50.708;7.906;2023-01-15T00:05:10;6.80;92.90
77207;DHT22;66190;50.708;7.906;2023-01-15T00:07:35;6.70;93.40
77207;DHT22;66190;50.708;7.906;2023-01-15T00:10:01;6.60;93.80
77207;DHT22;66190;50.708;7.906;2023-01-15T00:12:26;6.50;94.40
77207;DHT22;66190;50.708;7.906;2023-01-15T00:14:52;6.40;94.40
77207;DHT22;66190;50.708;7.906;2023-01-15T00:17:18;6.40;94.50
77207;DHT22;66190;50.708;7.906;2023-01-15T00:19:43;6.30;94.80
77207;DHT22;66190;50.708;7.906;2023-01-15T00:22:09;6.20;96.20
77207;DHT22;66190;50.708;7.906;2023-01-15T00:24:34;6.20;96.90
77207;DHT22;66190;50.708;7.906;2023-01-15T00:27:18;5.90;95.10
77207;DHT22;66190;50.708;7.906;2023-01-15T00:30:03;5.70;95.10
77207;DHT22;66190;50.708;7.906;2023-01-15T00:32:29;5.60;95.10
77207;DHT22;66190;50.708;7.906;2023-01-15T00:34:58;5.50;95.70
77207;DHT22;66190;50.708;7.906;2023-01-15T00:37:25;5.50;95.90
77207;DHT22;66190;50.708;7.906;2023-01-15T00:39:50;5.50;96.00
77207;DHT22;66190;50.708;7.906;2023-01-15T00:42:17;5.40;96.80
77207;DHT22;66190;50.708;7.906;2023-01-15T00:44:43;5.40;97.10
77207;DHT22;66190;50.708;7.906;2023-01-15T00:47:08;5.40;96.70
77207;DHT22;66190;50.708;7.906;2023-01-15T00:49:42;5.40;95.90
77207;DHT22;66190;50.708;7.906;2023-01-15T00:52:07;5.40;95.90
77207;DHT22;66190;50.708;7.906;2023-01-15T00:54:33;5.40;95.20
77207;DHT22;66190;50.708;7.906;2023-01-15T00:56:59;5.30;94.10
77207;DHT22;66190;50.708;7.906;2023-01-15T00:59:24;5.10;93.90
77207;DHT22;66190;50.708;7.906;2023-01-15T01:01:50;5.00;93.10
77207;DHT22;66190;50.708;7.906;2023-01-15T01:04:16;4.90;93.40
77207;DHT22;66190;50.708;7.906;2023-01-15T01:06:41;4.70;93.90
77207;DHT22;66190;50.708;7.906;2023-01-15T01:09:13;4.60;94.30
77207;DHT22;66190;50.708;7.906;2023-01-15T01:11:38;4.50;93.60
77207;DHT22;66190;50.708;7.906;2023-01-15T01:14:04;4.40;93.70
77207;DHT22;66190;50.708;7.906;2023-01-15T01:19:01;4.30;93.30
77207;DHT22;66190;50.708;7.906;2023-01-15T01:21:28;4.30;93.00
77207;DHT22;66190;50.708;7.906;2023-01-15T01:23:54;4.30;93.30
77207;DHT22;66190;50.708;7.906;2023-01-15T01:26:22;4.20;93.50
77207;DHT22;66190;50.708;7.906;2023-01-15T01:28:49;4.10;93.10
77207;DHT22;66190;50.708;7.906;2023-01-15T01:31:15;4.10;93.70
77207;DHT22;66190;50.708;7.906;2023-01-15T01:33:41;4.10;94.50
77207;DHT22;66190;50.708;7.906;2023-01-15T01:36:06;4.00;93.90
77207;DHT22;66190;50.708;7.906;2023-01-15T01:38:32;3.90;93.70
77207;DHT22;66190;50.708;7.906;2023-01-15T01:40:58;3.90;94.20
77207;DHT22;66190;50.708;7.906;2023-01-15T01:43:27;3.90;94.00
77207;DHT22;66190;50.708;7.906;2023-01-15T01:45:53;3.90;93.70
77207;DHT22;66190;50.708;7.906;2023-01-15T01:48:26;3.90;93.60
77207;DHT22;66190;50.708;7.906;2023-01-15T01:50:55;3.90;94.00
77207;DHT22;66190;50.708;7.906;2023-01-15T01:53:25;3.80;93.40
77207;DHT22;66190;50.708;7.906;2023-01-15T01:55:52;3.80;93.70
77207;DHT22;66190;50.708;7.906;2023-01-15T01:58:18;3.80;93.80
77207;DHT22;66190;50.708;7.906;2023-01-15T02:00:47;3.80;93.70
77207;DHT22;66190;50.708;7.906;2023-01-15T02:03:17;3.80;93.80
77207;DHT22;66190;50.708;7.906;2023-01-15T02:05:48;3.70;93.80
77207;DHT22;66190;50.708;7.906;2023-01-15T02:08:15;3.70;93.40
77207;DHT22;66190;50.708;7.906;2023-01-15T02:10:41;3.60;92.80
77207;DHT22;66190;50.708;7.906;2023-01-15T02:13:24;3.60;93.00
77207;DHT22;66190;50.708;7.906;2023-01-15T02:16:20;3.60;91.90
77207;DHT22;66190;50.708;7.906;2023-01-15T02:27:22;3.60;92.80
77207;DHT22;66190;50.708;7.906;2023-01-15T02:32:29;3.60;91.60
77207;DHT22;66190;50.708;7.906;2023-01-15T02:35:00;3.60;91.00
77207;DHT22;66190;50.708;7.906;2023-01-15T02:37:29;3.60;90.30
77207;DHT22;66190;50.708;7.906;2023-01-15T02:39:58;3.60;90.30
77207;DHT22;66190;50.708;7.906;2023-01-15T02:42:26;3.60;90.30
77207;DHT22;66190;50.708;7.906;2023-01-15T02:44:54;3.60;90.90
77207;DHT22;66190;50.708;7.906;2023-01-15T02:47:25;3.60;90.10
77207;DHT22;66190;50.708;7.906;2023-01-15T02:49:54;3.60;89.90
77207;DHT22;66190;50.708;7.906;2023-01-15T02:52:46;3.50;90.70
77207;DHT22;66190;50.708;7.906;2023-01-15T02:55:26;3.50;91.00
77207;DHT22;66190;50.708;7.906;2023-01-15T02:57:56;3.50;90.60
77207;DHT22;66190;50.708;7.906;2023-01-15T03:00:23;3.60;91.50
77207;DHT22;66190;50.708;7.906;2023-01-15T03:02:57;3.50;91.30
77207;DHT22;66190;50.708;7.906;2023-01-15T03:05:40;3.60;92.10
77207;DHT22;66190;50.708;7.906;2023-01-15T03:08:08;3.50;91.60
77207;DHT22;66190;50.708;7.906;2023-01-15T03:13:10;3.50;92.50
77207;DHT22;66190;50.708;7.906;2023-01-15T03:15:54;3.50;92.30
77207;DHT22;66190;50.708;7.906;2023-01-15T03:21:20;3.40;92.10
77207;DHT22;66190;50.708;7.906;2023-01-15T03:23:50;3.30;92.10
77207;DHT22;66190;50.708;7.906;2023-01-15T03:26:18;3.30;92.00
77207;DHT22;66190;50.708;7.906;2023-01-15T03:28:44;3.40;92.20
77207;DHT22;66190;50.708;7.906;2023-01-15T03:31:11;3.30;91.60
77207;DHT22;66190;50.708;7.906;2023-01-15T03:33:36;3.30;91.60
77207;DHT22;66190;50.708;7.906;2023-01-15T03:36:02;3.30;91.90
77207;DHT22;66190;50.708;7.906;2023-01-15T03:38:32;3.30;91.80
77207;DHT22;66190;50.708;7.906;2023-01-15T03:41:22;3.20;91.50
77207;DHT22;66190;50.708;7.906;2023-01-15T03:46:42;3.30;92.00
77207;DHT22;66190;50.708;7.906;2023-01-15T03:57:14;3.30;92.80
77207;DHT22;66190;50.708;7.906;2023-01-15T03:59:53;3.20;91.70
77207;DHT22;66190;50.708;7.906;2023-01-15T04:02:20;3.30;91.90
77207;DHT22;66190;50.708;7.906;2023-01-15T04:04:48;3.20;92.10
77207;DHT22;66190;50.708;7.906;2023-01-15T04:07:15;3.20;91.60
77207;DHT22;66190;50.708;7.906;2023-01-15T04:09:41;3.10;91.50
77207;DHT22;66190;50.708;7.906;2023-01-15T04:12:07;3.00;91.50
77207;DHT22;66190;50.708;7.906;2023-01-15T04:14:33;3.00;91.60
77207;DHT22;66190;50.708;7.906;2023-01-15T04:16:59;3.00;91.50
77207;DHT22;66190;50.708;7.906;2023-01-15T04:19:24;3.00;91.80
77207;DHT22;66190;50.708;7.906;2023-01-15T04:21:50;3.00;92.00
77207;DHT22;66190;50.708;7.906;2023-01-15T04:24:16;3.00;92.10
77207;DHT22;66190;50.708;7.906;2023-01-15T04:26:41;3.00;92.40
77207;DHT22;66190;50.708;7.906;2023-01-15T04:29:07;3.00;92.50
77207;DHT22;66190;50.708;7.906;2023-01-15T04:31:33;3.10;92.40
77207;DHT22;66190;50.708;7.906;2023-01-15T04:34:01;3.10;92.10
77207;DHT22;66190;50.708;7.906;2023-01-15T04:36:26;3.10;91.60
77207;DHT22;66190;50.708;7.906;2023-01-15T04:38:52;3.00;91.40
77207;DHT22;66190;50.708;7.906;2023-01-15T04:41:19;2.90;91.70
77207;DHT22;66190;50.708;7.906;2023-01-15T04:44:03;2.90;91.30
77207;DHT22;66190;50.708;7.906;2023-01-15T04:46:40;2.90;92.10
77207;DHT22;66190;50.708;7.906;2023-01-15T04:49:11;2.80;92.10
77207;DHT22;66190;50.708;7.906;2023-01-15T04:51:38;2.70;92.20
77207;DHT22;66190;50.708;7.906;2023-01-15T04:54:05;2.70;92.30
77207;DHT22;66190;50.708;7.906;2023-01-15T04:56:36;2.70;92.40
77207;DHT22;66190;50.708;7.906;2023-01-15T04:59:02;2.70;92.70
77207;DHT22;66190;50.708;7.906;2023-01-15T05:01:27;2.70;92.60
77207;DHT22;66190;50.708;7.906;2023-01-15T05:03:53;2.80;93.00
77207;DHT22;66190;50.708;7.906;2023-01-15T05:06:19;2.70;92.70
77207;DHT22;66190;50.708;7.906;2023-01-15T05:08:44;2.70;92.80
77207;DHT22;66190;50.708;7.906;2023-01-15T05:11:10;2.70;92.80
77207;DHT22;66190;50.708;7.906;2023-01-15T05:13:36;2.80;93.00
77207;DHT22;66190;50.708;7.906;2023-01-15T05:16:25;2.70;92.60
77207;DHT22;66190;50.708;7.906;2023-01-15T05:18:52;2.60;92.40
77207;DHT22;66190;50.708;7.906;2023-01-15T05:21:30;2.70;91.80
77207;DHT22;66190;50.708;7.906;2023-01-15T05:23:57;2.70;92.30
77207;DHT22;66190;50.708;7.906;2023-01-15T05:26:25;2.70;92.10
77207;DHT22;66190;50.708;7.906;2023-01-15T05:28:56;2.80;92.10
77207;DHT22;66190;50.708;7.906;2023-01-15T05:31:23;2.80;91.60
77207;DHT22;66190;50.708;7.906;2023-01-15T05:33:50;2.80;91.60
77207;DHT22;66190;50.708;7.906;2023-01-15T05:36:18;2.90;91.00
77207;DHT22;66190;50.708;7.906;2023-01-15T05:38:44;2.80;91.00
77207;DHT22;66190;50.708;7.906;2023-01-15T05:41:12;2.90;90.90
77207;DHT22;66190;50.708;7.906;2023-01-15T05:44:00;2.90;91.20
77207;DHT22;66190;50.708;7.906;2023-01-15T05:46:26;2.90;91.00
77207;DHT22;66190;50.708;7.906;2023-01-15T05:48:52;3.00;91.10
77207;DHT22;66190;50.708;7.906;2023-01-15T05:51:18;2.90;90.60
77207;DHT22;66190;50.708;7.906;2023-01-15T05:53:43;2.90;91.00
77207;DHT22;66190;50.708;7.906;2023-01-15T05:56:09;2.90;90.40
77207;DHT22;66190;50.708;7.906;2023-01-15T05:58:35;2.90;90.70
77207;DHT22;66190;50.708;7.906;2023-01-15T06:01:08;2.90;90.60
77207;DHT22;66190;50.708;7.906;2023-01-15T06:03:34;2.90;90.90
77207;DHT22;66190;50.708;7.906;2023-01-15T06:06:00;2.90;91.00
77207;DHT22;66190;50.708;7.906;2023-01-15T06:08:26;2.90;91.00
77207;DHT22;66190;50.708;7.906;2023-01-15T06:10:52;2.90;91.30
77207;DHT22;66190;50.708;7.906;2023-01-15T06:13:17;2.90;90.80
77207;DHT22;66190;50.708;7.906;2023-01-15T06:15:43;2.90;91.00
77207;DHT22;66190;50.708;7.906;2023-01-15T06:18:10;2.90;91.00
77207;DHT22;66190;50.708;7.906;2023-01-15T06:20:39;2.90;91.00
77207;DHT22;66190;50.708;7.906;2023-01-15T06:23:06;2.80;90.90
77207;DHT22;66190;50.708;7.906;2023-01-15T06:25:32;2.80;90.90
77207;DHT22;66190;50.708;7.906;2023-01-15T06:28:03;2.80;91.00
77207;DHT22;66190;50.708;7.906;2023-01-15T06:30:28;2.90;91.00
77207;DHT22;66190;50.708;7.906;2023-01-15T06:32:54;2.80;90.90
77207;DHT22;66190;50.708;7.906;2023-01-15T06:35:20;2.90;91.00
77207;DHT22;66190;50.708;7.906;2023-01-15T06:37:47;2.80;90.90
77207;DHT22;66190;50.708;7.906;2023-01-15T06:40:13;2.90;91.00
77207;DHT22;66190;50.708;7.906;2023-01-15T06:42:38;2.80;90.70
77207;DHT22;66190;50.708;7.906;2023-01-15T06:45:23;2.80;90.60
77207;DHT22;66190;50.708;7.906;2023-01-15T06:48:07;2.80;91.00
77207;DHT22;66190;50.708;7.906;2023-01-15T06:50:32;2.80;91.00
77207;DHT22;66190;50.708;7.906;2023-01-15T06:52:58;2.80;91.20
77207;DHT22;66190;50.708;7.906;2023-01-15T06:55:23;2.80;90.90
77207;DHT22;66190;50.708;7.906;2023-01-15T06:57:49;2.80;91.10
77207;DHT22;66190;50.708;7.906;2023-01-15T07:00:15;2.80;91.20
77207;DHT22;66190;50.708;7.906;2023-01-15T07:02:41;2.70;91.80
77207;DHT22;66190;50.708;7.906;2023-01-15T07:05:07;2.80;92.00
77207;DHT22;66190;50.708;7.906;2023-01-15T07:07:33;2.70;92.00
77207;DHT22;66190;50.708;7.906;2023-01-15T07:09:59;2.60;92.40
77207;DHT22;66190;50.708;7.906;2023-01-15T07:12:25;2.50;92.90
77207;DHT22;66190;50.708;7.906;2023-01-15T07:14:51;2.50;93.40
77207;DHT22;66190;50.708;7.906;2023-01-15T07:17:17;2.40;93.60
77207;DHT22;66190;50.708;7.906;2023-01-15T07:19:43;2.40;94.00
77207;DHT22;66190;50.708;7.906;2023-01-15T07:22:09;2.40;94.00
77207;DHT22;66190;50.708;7.906;2023-01-15T07:24:35;2.40;94.10
77207;DHT22;66190;50.708;7.906;2023-01-15T07:27:01;2.10;94.30
77207;DHT22;66190;50.708;7.906;2023-01-15T07:29:26;2.10;94.00
77207;DHT22;66190;50.708;7.906;2023-01-15T07:31:52;1.90;94.20
77207;DHT22;66190;50.708;7.906;2023-01-15T07:34:18;1.90;94.70
77207;DHT22;66190;50.708;7.906;2023-01-15T07:36:44;2.00;95.00
77207;DHT22;66190;50.708;7.906;2023-01-15T07:39:11;2.00;94.90
77207;DHT22;66190;50.708;7.906;2023-01-15T07:41:37;2.00;95.00
77207;DHT22;66190;50.708;7.906;2023-01-15T07:44:21;2.00;94.90
77207;DHT22;66190;50.708;7.906;2023-01-15T07:47:20;2.20;95.10
77207;DHT22;66190;50.708;7.906;2023-01-15T07:50:07;2.30;94.60
77207;DHT22;66190;50.708;7.906;2023-01-15T07:52:33;2.20;94.00
77207;DHT22;66190;50.708;7.906;2023-01-15T07:54:59;2.20;94.00
77207;DHT22;66190;50.708;7.906;2023-01-15T07:57:26;2.30;94.20
77207;DHT22;66190;50.708;7.906;2023-01-15T07:59:51;2.30;94.30
77207;DHT22;66190;50.708;7.906;2023-01-15T08:02:17;2.40;94.00
77207;DHT22;66190;50.708;7.906;2023-01-15T08:04:43;2.30;93.90
77207;DHT22;66190;50.708;7.906;2023-01-15T08:07:09;2.30;93.90
77207;DHT22;66190;50.708;7.906;2023-01-15T08:09:35;2.40;93.80
77207;DHT22;66190;50.708;7.906;2023-01-15T08:12:02;2.40;94.00
77207;DHT22;66190;50.708;7.906;2023-01-15T08:14:46;2.50;93.50
77207;DHT22;66190;50.708;7.906;2023-01-15T08:17:35;2.40;93.70
77207;DHT22;66190;50.708;7.906;2023-01-15T08:20:02;2.40;93.20
77207;DHT22;66190;50.708;7.906;2023-01-15T08:22:28;2.40;93.10
77207;DHT22;66190;50.708;7.906;2023-01-15T08:24:54;2.40;93.40
77207;DHT22;66190;50.708;7.906;2023-01-15T08:27:19;2.40;93.30
77207;DHT22;66190;50.708;7.906;2023-01-15T08:29:45;2.40;93.00
77207;DHT22;66190;50.708;7.906;2023-01-15T08:32:10;2.40;92.90
77207;DHT22;66190;50.708;7.906;2023-01-15T08:34:36;2.50;92.90
77207;DHT22;66190;50.708;7.906;2023-01-15T08:37:02;2.50;93.30
77207;DHT22;66190;50.708;7.906;2023-01-15T08:39:28;2.50;92.50
77207;DHT22;66190;50.708;7.906;2023-01-15T08:41:54;2.50;93.00
77207;DHT22;66190;50.708;7.906;2023-01-15T08:44:21;2.60;92.80
77207;DHT22;66190;50.708;7.906;2023-01-15T08:46:48;2.50;92.40
77207;DHT22;66190;50.708;7.906;2023-01-15T08:49:15;2.50;92.40
77207;DHT22;66190;50.708;7.906;2023-01-15T08:51:40;2.50;92.60
77207;DHT22;66190;50.708;7.906;2023-01-15T08:54:06;2.50;92.40
77207;DHT22;66190;50.708;7.906;2023-01-15T08:56:32;2.50;92.70
77207;DHT22;66190;50.708;7.906;2023-01-15T08:58:57;2.50;92.30
77207;DHT22;66190;50.708;7.906;2023-01-15T09:01:23;2.50;92.70
77207;DHT22;66190;50.708;7.906;2023-01-15T09:03:49;2.50;92.90
77207;DHT22;66190;50.708;7.906;2023-01-15T09:06:14;2.50;92.20
77207;DHT22;66190;50.708;7.906;2023-01-15T09:08:40;2.50;92.20
77207;DHT22;66190;50.708;7.906;2023-01-15T09:11:07;2.60;92.30
77207;DHT22;66190;50.708;7.906;2023-01-15T09:13:37;2.60;92.00
77207;DHT22;66190;50.708;7.906;2023-01-15T09:16:05;2.60;92.00
77207;DHT22;66190;50.708;7.906;2023-01-15T09:18:31;2.70;92.20
77207;DHT22;66190;50.708;7.906;2023-01-15T09:20:58;2.70;91.90
77207;DHT22;66190;50.708;7.906;2023-01-15T09:23:24;2.70;91.90
77207;DHT22;66190;50.708;7.906;2023-01-15T09:25:53;2.70;92.10
77207;DHT22;66190;50.708;7.906;2023-01-15T09:28:19;2.80;91.90
77207;DHT22;66190;50.708;7.906;2023-01-15T09:30:45;2.80;91.80
77207;DHT22;66190;50.708;7.906;2023-01-15T09:33:10;2.80;91.70
77207;DHT22;66190;50.708;7.906;2023-01-15T09:35:36;2.90;91.40
77207;DHT22;66190;50.708;7.906;2023-01-15T09:38:02;2.90;91.20
77207;DHT22;66190;50.708;7.906;2023-01-15T09:43:10;2.90;91.10
77207;DHT22;66190;50.708;7.906;2023-01-15T09:45:46;2.90;91.10
77207;DHT22;66190;50.708;7.906;2023-01-15T09:56:21;2.90;91.10
77207;DHT22;66190;50.708;7.906;2023-01-15T09:58:49;2.90;90.80
77207;DHT22;66190;50.708;7.906;2023-01-15T10:01:23;2.90;91.00
77207;DHT22;66190;50.708;7.906;2023-01-15T10:04:06;2.90;91.00
77207;DHT22;66190;50.708;7.906;2023-01-15T10:07:44;3.00;91.30
77207;DHT22;66190;50.708;7.906;2023-01-15T10:09:47;2.90;91.10
77207;DHT22;66190;50.708;7.906;2023-01-15T10:12:24;3.00;91.30
77207;DHT22;66190;50.708;7.906;2023-01-15T10:15:11;2.90;91.10
77207;DHT22;66190;50.708;7.906;2023-01-15T10:17:47;3.00;90.70
77207;DHT22;66190;50.708;7.906;2023-01-15T10:28:31;3.00;90.50
77207;DHT22;66190;50.708;7.906;2023-01-15T10:31:04;3.00;90.60
77207;DHT22;66190;50.708;7.906;2023-01-15T10:39:14;3.30;90.10
77207;DHT22;66190;50.708;7.906;2023-01-15T10:47:17;3.30;88.20
77207;DHT22;66190;50.708;7.906;2023-01-15T10:49:43;3.40;88.50
77207;DHT22;66190;50.708;7.906;2023-01-15T10:55:05;3.40;87.10
77207;DHT22;66190;50.708;7.906;2023-01-15T11:00:09;3.50;88.20
77207;DHT22;66190;50.708;7.906;2023-01-15T11:02:44;3.40;87.70
77207;DHT22;66190;50.708;7.906;2023-01-15T11:05:16;3.30;86.40
77207;DHT22;66190;50.708;7.906;2023-01-15T11:07:46;3.30;87.10
77207;DHT22;66190;50.708;7.906;2023-01-15T11:10:14;3.40;87.80
77207;DHT22;66190;50.708;7.906;2023-01-15T11:12:51;3.40;87.90
77207;DHT22;66190;50.708;7.906;2023-01-15T11:15:36;3.50;87.10
77207;DHT22;66190;50.708;7.906;2023-01-15T11:18:28;3.50;87.70
77207;DHT22;66190;50.708;7.906;2023-01-15T11:21:19;3.50;87.20
77207;DHT22;66190;50.708;7.906;2023-01-15T11:23:47;3.60;87.70
77207;DHT22;66190;50.708;7.906;2023-01-15T11:26:20;3.60;87.00
77207;DHT22;66190;50.708;7.906;2023-01-15T11:28:46;3.70;86.20
77207;DHT22;66190;50.708;7.906;2023-01-15T11:31:14;3.90;87.10
77207;DHT22;66190;50.708;7.906;2023-01-15T11:33:43;4.00;84.40
77207;DHT22;66190;50.708;7.906;2023-01-15T11:36:21;3.90;85.30
77207;DHT22;66190;50.708;7.906;2023-01-15T11:38:48;4.20;85.60
77207;DHT22;66190;50.708;7.906;2023-01-15T11:41:22;4.00;83.30
77207;DHT22;66190;50.708;7.906;2023-01-15T11:43:56;4.10;84.30
77207;DHT22;66190;50.708;7.906;2023-01-15T11:46:44;4.20;82.80
77207;DHT22;66190;50.708;7.906;2023-01-15T11:49:29;4.30;82.90
77207;DHT22;66190;50.708;7.906;2023-01-15T11:52:18;4.40;82.60
77207;DHT22;66190;50.708;7.906;2023-01-15T11:54:50;4.60;83.30
77207;DHT22;66190;50.708;7.906;2023-01-15T11:57:25;4.70;82.10
77207;DHT22;66190;50.708;7.906;2023-01-15T11:59:52;4.60;81.50
77207;DHT22;66190;50.708;7.906;2023-01-15T12:04:54;4.50;81.20
77207;DHT22;66190;50.708;7.906;2023-01-15T12:07:23;4.40;81.30
77207;DHT22;66190;50.708;7.906;2023-01-15T12:10:09;4.40;81.80
77207;DHT22;66190;50.708;7.906;2023-01-15T12:12:45;4.40;80.80
77207;DHT22;66190;50.708;7.906;2023-01-15T12:21:18;4.30;80.10
77207;DHT22;66190;50.708;7.906;2023-01-15T12:34:26;4.10;77.20
77207;DHT22;66190;50.708;7.906;2023-01-15T12:37:03;4.20;78.50
77207;DHT22;66190;50.708;7.906;2023-01-15T12:39:32;4.20;77.70
77207;DHT22;66190;50.708;7.906;2023-01-15T12:42:06;4.10;76.40
77207;DHT22;66190;50.708;7.906;2023-01-15T12:44:53;4.20;78.00
77207;DHT22;66190;50.708;7.906;2023-01-15T12:47:37;4.10;77.50
77207;DHT22;66190;50.708;7.906;2023-01-15T12:53:06;4.10;77.90
77207;DHT22;66190;50.708;7.906;2023-01-15T12:55:39;4.10;78.00
77207;DHT22;66190;50.708;7.906;2023-01-15T12:58:58;4.10;77.40
77207;DHT22;66190;50.708;7.906;2023-01-15T13:01:05;4.10;78.10
77207;DHT22;66190;50.708;7.906;2023-01-15T13:04:07;4.10;78.50
77207;DHT22;66190;50.708;7.906;2023-01-15T13:06:37;4.20;77.50
77207;DHT22;66190;50.708;7.906;2023-01-15T13:09:51;4.30;76.40
77207;DHT22;66190;50.708;7.906;2023-01-15T13:12:17;4.30;76.60
77207;DHT22;66190;50.708;7.906;2023-01-15T13:14:43;4.30;76.50
77207;DHT22;66190;50.708;7.906;2023-01-15T13:20:11;4.20;76.60
77207;DHT22;66190;50.708;7.906;2023-01-15T13:22:51;4.20;77.30
77207;DHT22;66190;50.708;7.906;2023-01-15T13:28:01;4.10;77.30
77207;DHT22;66190;50.708;7.906;2023-01-15T13:35:53;4.10;76.50
77207;DHT22;66190;50.708;7.906;2023-01-15T13:38:21;4.20;76.90
77207;DHT22;66190;50.708;7.906;2023-01-15T13:40:50;4.10;77.10
77207;DHT22;66190;50.708;7.906;2023-01-15T13:43:47;4.20;76.60
77207;DHT22;66190;50.708;7.906;2023-01-15T13:46:18;4.20;77.20
77207;DHT22;66190;50.708;7.906;2023-01-15T13:48:47;4.20;77.20
77207;DHT22;66190;50.708;7.906;2023-01-15T13:53:53;4.10;76.80
77207;DHT22;66190;50.708;7.906;2023-01-15T13:56:31;4.10;77.30
77207;DHT22;66190;50.708;7.906;2023-01-15T13:59:05;4.10;77.30
77207;DHT22;66190;50.708;7.906;2023-01-15T14:01:35;4.10;77.10
77207;DHT22;66190;50.708;7.906;2023-01-15T14:06:40;4.10;77.70
77207;DHT22;66190;50.708;7.906;2023-01-15T14:09:27;4.10;77.90
77207;DHT22;66190;50.708;7.906;2023-01-15T14:20:42;4.20;75.30
77207;DHT22;66190;50.708;7.906;2023-01-15T14:24:18;4.20;75.80
77207;DHT22;66190;50.708;7.906;2023-01-15T14:31:46;4.10;75.40
77207;DHT22;66190;50.708;7.906;2023-01-15T14:36:58;4.20;75.80
77207;DHT22;66190;50.708;7.906;2023-01-15T14:42:07;4.20;75.10
77207;DHT22;66190;50.708;7.906;2023-01-15T14:44:57;4.20;75.10
77207;DHT22;66190;50.708;7.906;2023-01-15T14:50:43;4.20;75.40
77207;DHT22;66190;50.708;7.906;2023-01-15T15:06:24;4.10;75.30
77207;DHT22;66190;50.708;7.906;2023-01-15T15:08:50;4.10;75.30
77207;DHT22;66190;50.708;7.906;2023-01-15T15:11:24;4.10;76.40
77207;DHT22;66190;50.708;7.906;2023-01-15T15:14:13;4.00;76.00
77207;DHT22;66190;50.708;7.906;2023-01-15T15:16:44;4.00;76.70
77207;DHT22;66190;50.708;7.906;2023-01-15T15:21:50;4.10;76.00
77207;DHT22;66190;50.708;7.906;2023-01-15T15:24:26;4.00;77.10
77207;DHT22;66190;50.708;7.906;2023-01-15T15:26:53;4.00;76.80
77207;DHT22;66190;50.708;7.906;2023-01-15T15:29:20;4.00;76.20
77207;DHT22;66190;50.708;7.906;2023-01-15T15:31:50;4.10;76.30
77207;DHT22;66190;50.708;7.906;2023-01-15T15:36:53;4.10;75.80
77207;DHT22;66190;50.708;7.906;2023-01-15T15:39:29;4.10;75.20
77207;DHT22;66190;50.708;7.906;2023-01-15T15:41:59;4.00;77.20
77207;DHT22;66190;50.708;7.906;2023-01-15T15:44:56;3.90;78.80
77207;DHT22;66190;50.708;7.906;2023-01-15T15:47:42;3.70;80.40
77207;DHT22;66190;50.708;7.906;2023-01-15T15:50:32;3.60;81.90
77207;DHT22;66190;50.708;7.906;2023-01-15T15:52:58;3.40;83.90
77207;DHT22;66190;50.708;7.906;2023-01-15T15:55:36;3.30;85.10
77207;DHT22;66190;50.708;7.906;2023-01-15T15:58:03;3.30;84.90
77207;DHT22;66190;50.708;7.906;2023-01-15T16:00:37;3.30;85.30
77207;DHT22;66190;50.708;7.906;2023-01-15T16:03:24;3.30;85.40
77207;DHT22;66190;50.708;7.906;2023-01-15T16:08:22;3.40;85.10
77207;DHT22;66190;50.708;7.906;2023-01-15T16:10:57;3.40;84.60
77207;DHT22;66190;50.708;7.906;2023-01-15T16:13:35;3.50;83.60
77207;DHT22;66190;50.708;7.906;2023-01-15T16:16:04;3.50;84.00
77207;DHT22;66190;50.708;7.906;2023-01-15T16:18:53;3.50;82.80
77207;DHT22;66190;50.708;7.906;2023-01-15T16:21:28;3.60;82.70
77207;DHT22;66190;50.708;7.906;2023-01-15T16:23:55;3.60;81.80
77207;DHT22;66190;50.708;7.906;2023-01-15T16:26:27;3.60;82.20
77207;DHT22;66190;50.708;7.906;2023-01-15T16:28:56;3.60;82.80
77207;DHT22;66190;50.708;7.906;2023-01-15T16:31:22;3.60;82.40
77207;DHT22;66190;50.708;7.906;2023-01-15T16:33:56;3.60;81.90
77207;DHT22;66190;50.708;7.906;2023-01-15T16:36:23;3.60;82.60
77207;DHT22;66190;50.708;7.906;2023-01-15T16:38:51;3.60;83.10
77207;DHT22;66190;50.708;7.906;2023-01-15T16:41:24;3.60;84.00
77207;DHT22;66190;50.708;7.906;2023-01-15T16:44:01;3.60;84.80
77207;DHT22;66190;50.708;7.906;2023-01-15T16:46:31;3.50;85.90
77207;DHT22;66190;50.708;7.906;2023-01-15T16:49:31;3.60;85.20
77207;DHT22;66190;50.708;7.906;2023-01-15T16:51:59;3.50;85.40
77207;DHT22;66190;50.708;7.906;2023-01-15T16:57:04;3.50;85.90
77207;DHT22;66190;50.708;7.906;2023-01-15T17:02:16;3.50;86.10
77207;DHT22;66190;50.708;7.906;2023-01-15T17:04:45;3.50;86.00
77207;DHT22;66190;50.708;7.906;2023-01-15T17:07:31;3.50;86.30
77207;DHT22;66190;50.708;7.906;2023-01-15T17:09:59;3.40;86.20
77207;DHT22;66190;50.708;7.906;2023-01-15T17:12:36;3.50;86.50
77207;DHT22;66190;50.708;7.906;2023-01-15T17:17:45;3.40;86.50
77207;DHT22;66190;50.708;7.906;2023-01-15T17:20:13;3.40;86.30
77207;DHT22;66190;50.708;7.906;2023-01-15T17:22:43;3.40;86.60
77207;DHT22;66190;50.708;7.906;2023-01-15T17:25:26;3.50;86.80
77207;DHT22;66190;50.708;7.906;2023-01-15T17:27:53;3.50;86.60
77207;DHT22;66190;50.708;7.906;2023-01-15T17:30:20;3.30;87.20
77207;DHT22;66190;50.708;7.906;2023-01-15T17:32:47;3.20;89.50
77207;DHT22;66190;50.708;7.906;2023-01-15T17:35:21;3.10;90.20
77207;DHT22;66190;50.708;7.906;2023-01-15T17:37:47;3.20;90.20
77207;DHT22;66190;50.708;7.906;2023-01-15T17:40:13;3.10;90.20
77207;DHT22;66190;50.708;7.906;2023-01-15T17:42:39;3.10;90.10
77207;DHT22;66190;50.708;7.906;2023-01-15T17:45:04;3.10;90.40
77207;DHT22;66190;50.708;7.906;2023-01-15T17:47:30;3.20;90.20
77207;DHT22;66190;50.708;7.906;2023-01-15T17:49:56;3.10;90.20
77207;DHT22;66190;50.708;7.906;2023-01-15T17:52:22;3.20;90.20
77207;DHT22;66190;50.708;7.906;2023-01-15T17:54:47;3.20;90.20
77207;DHT22;66190;50.708;7.906;2023-01-15T17:57:31;3.20;90.20
77207;DHT22;66190;50.708;7.906;2023-01-15T18:00:16;3.30;90.10
77207;DHT22;66190;50.708;7.906;2023-01-15T18:03:00;3.20;90.10
77207;DHT22;66190;50.708;7.906;2023-01-15T18:05:46;3.20;90.00
77207;DHT22;66190;50.708;7.906;2023-01-15T18:08:13;3.20;89.80
77207;DHT22;66190;50.708;7.906;2023-01-15T18:10:38;3.20;89.40
77207;DHT22;66190;50.708;7.906;2023-01-15T18:13:04;3.20;89.40
77207;DHT22;66190;50.708;7.906;2023-01-15T18:15:32;3.30;89.20
77207;DHT22;66190;50.708;7.906;2023-01-15T18:17:58;3.20;89.10
77207;DHT22;66190;50.708;7.906;2023-01-15T18:20:23;3.30;89.40
77207;DHT22;66190;50.708;7.906;2023-01-15T18:22:49;3.20;88.90
77207;DHT22;66190;50.708;7.906;2023-01-15T18:25:15;3.30;89.10
77207;DHT22;66190;50.708;7.906;2023-01-15T18:27:41;3.30;88.90
77207;DHT22;66190;50.708;7.906;2023-01-15T18:30:13;3.20;89.10
77207;DHT22;66190;50.708;7.906;2023-01-15T18:32:39;3.20;89.20
77207;DHT22;66190;50.708;7.906;2023-01-15T18:35:06;3.30;89.10
77207;DHT22;66190;50.708;7.906;2023-01-15T18:37:32;3.20;88.90
77207;DHT22;66190;50.708;7.906;2023-01-15T18:39:58;3.20;89.30
77207;DHT22;66190;50.708;7.906;2023-01-15T18:42:24;3.20;89.10